sensor_id;sensor_type;location;lat;lon;timestamp;pressure;altitude;pressure_sealevel;temperature;humidity
6028;BME280;3042;43.194;27.646;2023-05-09T00:02:15;102117.59;;;18.73;100.00
6028;BME280;3042;43.194;27.646;2023-05-09T00:04:42;102169.44;;;19.09;100.00
6028;BME280;3042;43.194;27.646;2023-05-09T00:07:09;102163.41;;;19.12;100.00
6028;BME280;3042;43.194;27.646;2023-05-09T00:09:36;102158.16;;;19.12;100.00
6028;BME280;3042;43.194;27.646;2023-05-09T00:12:04;102154.31;;;19.28;100.00
6028;BME280;3042;43.194;27.646;2023-05-09T00:14:31;102164.28;;;18.85;100.00
6028;BME280;3042;43.194;27.646;2023-05-09T00:16:59;102063.59;;;18.50;100.00
6028;BME280;3042;43.194;27.646;2023-05-09T00:19:27;102159.50;;;18.99;100.00
6028;BME280;3042;43.194;27.646;2023-05-09T00:21:54;102159.75;;;19.07;100.00
6028;BME280;3042;43.194;27.646;2023-05-09T00:24:21;102150.66;;;19.23;100.00
6028;BME280;3042;43.194;27.646;2023-05-09T00:26:49;102157.59;;;19.21;100.00
6028;BME280;3042;43.194;27.646;2023-05-09T00:29:16;102004.56;;;18.32;100.00
6028;BME280;3042;43.194;27.646;2023-05-09T00:32:01;102162.72;;;19.17;100.00
6028;BME280;3042;43.194;27.646;2023-05-09T00:34:30;102175.03;;;18.93;100.00
6028;BME280;3042;43.194;27.646;2023-05-09T00:36:57;102171.41;;;19.16;100.00
6028;BME280;3042;43.194;27.646;2023-05-09T00:39:24;102183.34;;;18.81;100.00
6028;BME280;3042;43.194;27.646;2023-05-09T00:41:51;102046.31;;;18.29;100.00
6028;BME280;3042;43.194;27.646;2023-05-09T00:44:20;102171.31;;;19.13;100.00
6028;BME280;3042;43.194;27.646;2023-05-09T00:46:48;102169.81;;;19.22;100.00
6028;BME280;3042;43.194;27.646;2023-05-09T00:49:15;102166.56;;;19.29;100.00
6028;BME280;3042;43.194;27.646;2023-05-09T00:51:44;102115.44;;;19.14;100.00
6028;BME280;3042;43.194;27.646;2023-05-09T00:54:12;102165.38;;;19.46;100.00
6028;BME280;3042;43.194;27.646;2023-05-09T00:56:39;102158.44;;;19.48;100.00
6028;BME280;3042;43.194;27.646;2023-05-09T00:59:06;102169.00;;;19.51;100.00
6028;BME280;3042;43.194;27.646;2023-05-09T01:01:33;102150.75;;;19.26;100.00
6028;BME280;3042;43.194;27.646;2023-05-09T01:04:01;102141.25;;;19.29;100.00
6028;BME280;3042;43.194;27.646;2023-05-09T01:06:33;102179.88;;;19.35;100.00
6028;BME280;3042;43.194;27.646;2023-05-09T01:09:15;102168.00;;;19.46;100.00
6028;BME280;3042;43.194;27.646;2023-05-09T01:11:54;102147.00;;;19.46;100.00
6028;BME280;3042;43.194;27.646;2023-05-09T01:14:32;102165.59;;;19.54;100.00
6028;BME280;3042;43.194;27.646;2023-05-09T01:17:06;102167.25;;;19.50;100.00
6028;BME280;3042;43.194;27.646;2023-05-09T01:19:56;102145.41;;;19.23;100.00
6028;BME280;3042;43.194;27.646;2023-05-09T01:22:29;102099.63;;;18.84;100.00
6028;BME280;3042;43.194;27.646;2023-05-09T01:25:25;102175.84;;;19.46;100.00
6028;BME280;3042;43.194;27.646;2023-05-09T01:28:10;102188.81;;;19.14;100.00
6028;BME280;3042;43.194;27.646;2023-05-09T01:30:41;102180.22;;;19.18;100.00
6028;BME280;3042;43.194;27.646;2023-05-09T01:33:13;102000.69;;;18.21;100.00
6028;BME280;3042;43.194;27.646;2023-05-09T01:35:43;102182.28;;;19.29;100.00
6028;BME280;3042;43.194;27.646;2023-05-09T01:38:19;102041.66;;;18.73;100.00
6028;BME280;3042;43.194;27.646;2023-05-09T01:40:52;102167.41;;;19.56;100.00
6028;BME280;3042;43.194;27.646;2023-05-09T01:43:22;102162.38;;;19.63;100.00
6028;BME280;3042;43.194;27.646;2023-05-09T01:45:53;102150.19;;;19.65;100.00
6028;BME280;3042;43.194;27.646;2023-05-09T01:48:22;102157.88;;;19.58;100.00
6028;BME280;3042;43.194;27.646;2023-05-09T01:50:53;102163.84;;;19.54;100.00
6028;BME280;3042;43.194;27.646;2023-05-09T01:53:21;102163.69;;;19.48;100.00
6028;BME280;3042;43.194;27.646;2023-05-09T01:55:50;102177.44;;;19.14;100.00
6028;BME280;3042;43.194;27.646;2023-05-09T01:58:19;102171.50;;;19.19;100.00
6028;BME280;3042;43.194;27.646;2023-05-09T02:00:49;102178.19;;;19.10;100.00
6028;BME280;3042;43.194;27.646;2023-05-09T02:03:19;102178.88;;;19.04;100.00
6028;BME280;3042;43.194;27.646;2023-05-09T02:05:49;102191.09;;;18.54;100.00
6028;BME280;3042;43.194;27.646;2023-05-09T02:08:17;102049.78;;;18.03;100.00
6028;BME280;3042;43.194;27.646;2023-05-09T02:10:46;102174.97;;;18.91;100.00
6028;BME280;3042;43.194;27.646;2023-05-09T02:13:16;102186.56;;;18.74;100.00
6028;BME280;3042;43.194;27.646;2023-05-09T02:15:44;102186.03;;;18.83;100.00
6028;BME280;3042;43.194;27.646;2023-05-09T02:18:13;102189.69;;;18.88;100.00
6028;BME280;3042;43.194;27.646;2023-05-09T02:20:44;102084.63;;;18.27;100.00
6028;BME280;3042;43.194;27.646;2023-05-09T02:23:11;102199.81;;;18.53;100.00
6028;BME280;3042;43.194;27.646;2023-05-09T02:25:40;102110.69;;;18.24;100.00
6028;BME280;3042;43.194;27.646;2023-05-09T02:28:08;102188.66;;;18.83;100.00
6028;BME280;3042;43.194;27.646;2023-05-09T02:30:39;102179.41;;;18.94;100.00
6028;BME280;3042;43.194;27.646;2023-05-09T02:33:09;102181.13;;;18.92;100.00
6028;BME280;3042;43.194;27.646;2023-05-09T02:35:38;102183.78;;;18.69;100.00
6028;BME280;3042;43.194;27.646;2023-05-09T02:38:09;102196.16;;;18.73;100.00
6028;BME280;3042;43.194;27.646;2023-05-09T02:40:36;102194.63;;;18.79;100.00
6028;BME280;3042;43.194;27.646;2023-05-09T02:43:05;102136.13;;;18.54;100.00
6028;BME280;3042;43.194;27.646;2023-05-09T02:45:33;102197.69;;;18.67;100.00
6028;BME280;3042;43.194;27.646;2023-05-09T02:48:00;102193.41;;;18.45;100.00
6028;BME280;3042;43.194;27.646;2023-05-09T02:50:27;102105.16;;;18.15;100.00
6028;BME280;3042;43.194;27.646;2023-05-09T02:52:54;102186.13;;;18.86;100.00
6028;BME280;3042;43.194;27.646;2023-05-09T02:55:23;102190.97;;;18.75;100.00
6028;BME280;3042;43.194;27.646;2023-05-09T02:57:51;102195.94;;;18.67;100.00
6028;BME280;3042;43.194;27.646;2023-05-09T03:00:19;102195.72;;;18.85;100.00
6028;BME280;3042;43.194;27.646;2023-05-09T03:02:46;102187.91;;;18.87;100.00
6028;BME280;3042;43.194;27.646;2023-05-09T03:05:13;102207.25;;;18.41;100.00
6028;BME280;3042;43.194;27.646;2023-05-09T03:07:41;102201.25;;;18.69;100.00
6028;BME280;3042;43.194;27.646;2023-05-09T03:10:09;102210.44;;;18.58;100.00
6028;BME280;3042;43.194;27.646;2023-05-09T03:12:38;102210.78;;;18.67;100.00
6028;BME280;3042;43.194;27.646;2023-05-09T03:15:10;102182.03;;;18.68;100.00
6028;BME280;3042;43.194;27.646;2023-05-09T03:17:37;102213.31;;;18.65;100.00
6028;BME280;3042;43.194;27.646;2023-05-09T03:20:06;102209.97;;;18.69;100.00
6028;BME280;3042;43.194;27.646;2023-05-09T03:22:35;102210.56;;;18.85;100.00
6028;BME280;3042;43.194;27.646;2023-05-09T03:25:02;102185.16;;;18.58;100.00
6028;BME280;3042;43.194;27.646;2023-05-09T03:27:29;102196.66;;;18.63;100.00
6028;BME280;3042;43.194;27.646;2023-05-09T03:29:59;102203.13;;;18.98;100.00
6028;BME280;3042;43.194;27.646;2023-05-09T03:32:26;102198.31;;;19.11;100.00
6028;BME280;3042;43.194;27.646;2023-05-09T03:34:53;102203.06;;;19.23;100.00
6028;BME280;3042;43.194;27.646;2023-05-09T03:37:21;102201.41;;;19.25;100.00
6028;BME280;3042;43.194;27.646;2023-05-09T03:39:49;102205.47;;;19.16;100.00
6028;BME280;3042;43.194;27.646;2023-05-09T03:42:16;102142.47;;;18.61;100.00
6028;BME280;3042;43.194;27.646;2023-05-09T03:44:43;102169.59;;;18.63;100.00
6028;BME280;3042;43.194;27.646;2023-05-09T03:47:11;102230.25;;;18.99;100.00
6028;BME280;3042;43.194;27.646;2023-05-09T03:49:38;102242.88;;;18.85;100.00
6028;BME280;3042;43.194;27.646;2023-05-09T03:52:06;102243.31;;;18.73;100.00
6028;BME280;3042;43.194;27.646;2023-05-09T03:54:33;102248.16;;;18.63;100.00
6028;BME280;3042;43.194;27.646;2023-05-09T03:57:00;102243.53;;;18.80;100.00
6028;BME280;3042;43.194;27.646;2023-05-09T03:59:28;102245.19;;;18.77;100.00
6028;BME280;3042;43.194;27.646;2023-05-09T04:01:55;102240.66;;;18.97;100.00
6028;BME280;3042;43.194;27.646;2023-05-09T04:04:23;102243.97;;;19.17;100.00
6028;BME280;3042;43.194;27.646;2023-05-09T04:06:51;102251.72;;;19.14;100.00
6028;BME280;3042;43.194;27.646;2023-05-09T04:09:18;102258.31;;;19.03;100.00
6028;BME280;3042;43.194;27.646;2023-05-09T04:11:45;102251.69;;;19.13;100.00
6028;BME280;3042;43.194;27.646;2023-05-09T04:14:12;102240.72;;;19.25;100.00
6028;BME280;3042;43.194;27.646;2023-05-09T04:16:39;102216.81;;;19.15;100.00
6028;BME280;3042;43.194;27.646;2023-05-09T04:19:06;102251.28;;;19.28;100.00
6028;BME280;3042;43.194;27.646;2023-05-09T04:21:35;102262.31;;;19.17;100.00
6028;BME280;3042;43.194;27.646;2023-05-09T04:24:02;102271.00;;;18.91;100.00
6028;BME280;3042;43.194;27.646;2023-05-09T04:26:30;102264.63;;;19.08;100.00
6028;BME280;3042;43.194;27.646;2023-05-09T04:28:57;102257.47;;;19.30;100.00
6028;BME280;3042;43.194;27.646;2023-05-09T04:31:24;102253.81;;;19.52;100.00
6028;BME280;3042;43.194;27.646;2023-05-09T04:33:52;102253.41;;;19.67;100.00
6028;BME280;3042;43.194;27.646;2023-05-09T04:36:19;102261.34;;;19.68;100.00
6028;BME280;3042;43.194;27.646;2023-05-09T04:38:48;102253.91;;;19.82;100.00
6028;BME280;3042;43.194;27.646;2023-05-09T04:41:15;102255.88;;;19.89;100.00
6028;BME280;3042;43.194;27.646;2023-05-09T04:43:42;102257.19;;;19.75;100.00
6028;BME280;3042;43.194;27.646;2023-05-09T04:46:09;102273.13;;;19.81;100.00
6028;BME280;3042;43.194;27.646;2023-05-09T04:48:36;102264.13;;;19.73;100.00
6028;BME280;3042;43.194;27.646;2023-05-09T04:51:25;102225.19;;;19.59;100.00
6028;BME280;3042;43.194;27.646;2023-05-09T04:53:55;102279.34;;;19.85;100.00
6028;BME280;3042;43.194;27.646;2023-05-09T04:56:23;102283.41;;;19.75;100.00
6028;BME280;3042;43.194;27.646;2023-05-09T04:58:50;102281.41;;;19.68;100.00
6028;BME280;3042;43.194;27.646;2023-05-09T05:01:17;102290.38;;;19.47;100.00
6028;BME280;3042;43.194;27.646;2023-05-09T05:03:59;102266.59;;;19.41;100.00
6028;BME280;3042;43.194;27.646;2023-05-09T05:06:27;102266.59;;;18.90;100.00
6028;BME280;3042;43.194;27.646;2023-05-09T05:08:56;102279.72;;;19.15;100.00
6028;BME280;3042;43.194;27.646;2023-05-09T05:11:23;102200.78;;;18.56;100.00
6028;BME280;3042;43.194;27.646;2023-05-09T05:13:51;102285.47;;;19.05;100.00
6028;BME280;3042;43.194;27.646;2023-05-09T05:16:24;102284.97;;;19.17;100.00
6028;BME280;3042;43.194;27.646;2023-05-09T05:18:52;102286.16;;;19.25;100.00
6028;BME280;3042;43.194;27.646;2023-05-09T05:21:25;102261.41;;;19.70;100.00
6028;BME280;3042;43.194;27.646;2023-05-09T05:23:53;102286.28;;;19.55;100.00
6028;BME280;3042;43.194;27.646;2023-05-09T05:26:21;102260.03;;;19.28;100.00
6028;BME280;3042;43.194;27.646;2023-05-09T05:28:50;102286.16;;;19.52;100.00
6028;BME280;3042;43.194;27.646;2023-05-09T05:31:22;102281.22;;;19.61;100.00
6028;BME280;3042;43.194;27.646;2023-05-09T05:33:50;102165.56;;;18.98;100.00
6028;BME280;3042;43.194;27.646;2023-05-09T05:36:17;102251.00;;;19.73;100.00
6028;BME280;3042;43.194;27.646;2023-05-09T05:38:45;102283.50;;;19.78;100.00
6028;BME280;3042;43.194;27.646;2023-05-09T05:41:12;102237.41;;;19.57;100.00
6028;BME280;3042;43.194;27.646;2023-05-09T05:43:41;102283.63;;;19.81;100.00
6028;BME280;3042;43.194;27.646;2023-05-09T05:46:08;102296.13;;;19.63;100.00
6028;BME280;3042;43.194;27.646;2023-05-09T05:48:36;102306.34;;;19.28;100.00
6028;BME280;3042;43.194;27.646;2023-05-09T05:51:03;102295.91;;;19.56;100.00
6028;BME280;3042;43.194;27.646;2023-05-09T05:53:30;102278.72;;;19.66;100.00
6028;BME280;3042;43.194;27.646;2023-05-09T05:55:57;102295.81;;;19.53;100.00
6028;BME280;3042;43.194;27.646;2023-05-09T05:58:24;102294.78;;;19.48;100.00
6028;BME280;3042;43.194;27.646;2023-05-09T06:00:54;102296.66;;;19.27;100.00
6028;BME280;3042;43.194;27.646;2023-05-09T06:03:21;102298.03;;;19.41;100.00
6028;BME280;3042;43.194;27.646;2023-05-09T06:05:48;102291.53;;;19.57;100.00
6028;BME280;3042;43.194;27.646;2023-05-09T06:08:15;102301.63;;;19.17;100.00
6028;BME280;3042;43.194;27.646;2023-05-09T06:10:42;102300.34;;;19.06;100.00
6028;BME280;3042;43.194;27.646;2023-05-09T06:13:34;102115.00;;;18.48;100.00
6028;BME280;3042;43.194;27.646;2023-05-09T06:22:12;102253.94;;;20.42;100.00
6028;BME280;3042;43.194;27.646;2023-05-09T06:24:39;102265.81;;;20.60;100.00
6028;BME280;3042;43.194;27.646;2023-05-09T06:27:06;102253.75;;;21.00;100.00
6028;BME280;3042;43.194;27.646;2023-05-09T06:29:37;102212.16;;;21.18;100.00
6028;BME280;3042;43.194;27.646;2023-05-09T06:32:05;102257.63;;;21.49;100.00
6028;BME280;3042;43.194;27.646;2023-05-09T06:34:32;102265.19;;;21.37;100.00
6028;BME280;3042;43.194;27.646;2023-05-09T06:36:59;102279.41;;;21.08;100.00
6028;BME280;3042;43.194;27.646;2023-05-09T06:39:28;102265.13;;;21.34;100.00
6028;BME280;3042;43.194;27.646;2023-05-09T06:41:55;102290.31;;;20.91;100.00
6028;BME280;3042;43.194;27.646;2023-05-09T06:44:22;102297.09;;;20.82;100.00
6028;BME280;3042;43.194;27.646;2023-05-09T06:46:49;102304.94;;;20.51;100.00
6028;BME280;3042;43.194;27.646;2023-05-09T06:49:17;102269.44;;;20.97;100.00
6028;BME280;3042;43.194;27.646;2023-05-09T06:51:44;102252.53;;;21.20;100.00
6028;BME280;3042;43.194;27.646;2023-05-09T06:54:11;102261.28;;;21.19;100.00
6028;BME280;3042;43.194;27.646;2023-05-09T06:56:39;102247.81;;;21.42;100.00
6028;BME280;3042;43.194;27.646;2023-05-09T06:59:07;102233.88;;;21.10;100.00
6028;BME280;3042;43.194;27.646;2023-05-09T07:01:37;102247.66;;;21.36;100.00
6028;BME280;3042;43.194;27.646;2023-05-09T07:04:04;102246.13;;;21.44;100.00
6028;BME280;3042;43.194;27.646;2023-05-09T07:06:32;102236.34;;;21.76;100.00
6028;BME280;3042;43.194;27.646;2023-05-09T07:08:59;102252.69;;;21.26;100.00
6028;BME280;3042;43.194;27.646;2023-05-09T07:11:26;102244.34;;;21.43;100.00
6028;BME280;3042;43.194;27.646;2023-05-09T07:13:56;102193.38;;;21.39;100.00
6028;BME280;3042;43.194;27.646;2023-05-09T07:16:23;102178.41;;;21.37;100.00
6028;BME280;3042;43.194;27.646;2023-05-09T07:18:51;102239.09;;;21.43;100.00
6028;BME280;3042;43.194;27.646;2023-05-09T07:21:18;102227.78;;;21.86;100.00
6028;BME280;3042;43.194;27.646;2023-05-09T07:23:47;102224.53;;;21.98;100.00
6028;BME280;3042;43.194;27.646;2023-05-09T07:26:14;102191.16;;;21.97;100.00
6028;BME280;3042;43.194;27.646;2023-05-09T07:28:44;102124.78;;;21.28;100.00
6028;BME280;3042;43.194;27.646;2023-05-09T07:31:16;102235.72;;;21.88;100.00
6028;BME280;3042;43.194;27.646;2023-05-09T07:33:51;102234.84;;;21.89;100.00
6028;BME280;3042;43.194;27.646;2023-05-09T07:36:19;102035.91;;;21.53;100.00
6028;BME280;3042;43.194;27.646;2023-05-09T07:38:46;102203.72;;;22.54;100.00
6028;BME280;3042;43.194;27.646;2023-05-09T07:41:16;102220.78;;;22.28;100.00
6028;BME280;3042;43.194;27.646;2023-05-09T07:43:54;102207.78;;;22.37;100.00
6028;BME280;3042;43.194;27.646;2023-05-09T07:46:22;102205.78;;;22.69;100.00
6028;BME280;3042;43.194;27.646;2023-05-09T07:48:50;102237.47;;;21.89;100.00
6028;BME280;3042;43.194;27.646;2023-05-09T07:51:17;102202.00;;;22.55;100.00
6028;BME280;3042;43.194;27.646;2023-05-09T07:53:44;102216.56;;;22.36;100.00
6028;BME280;3042;43.194;27.646;2023-05-09T07:56:11;102205.31;;;22.02;100.00
6028;BME280;3042;43.194;27.646;2023-05-09T07:58:38;102227.53;;;22.17;100.00
6028;BME280;3042;43.194;27.646;2023-05-09T08:01:05;102229.16;;;22.08;100.00
6028;BME280;3042;43.194;27.646;2023-05-09T08:03:34;102223.41;;;22.28;100.00
6028;BME280;3042;43.194;27.646;2023-05-09T08:06:01;102226.50;;;22.08;100.00
6028;BME280;3042;43.194;27.646;2023-05-09T08:08:28;102255.09;;;21.52;100.00
6028;BME280;3042;43.194;27.646;2023-05-09T08:10:55;102249.19;;;21.62;100.00
6028;BME280;3042;43.194;27.646;2023-05-09T08:13:23;102245.72;;;21.65;100.00
6028;BME280;3042;43.194;27.646;2023-05-09T08:15:50;102264.09;;;21.27;100.00
6028;BME280;3042;43.194;27.646;2023-05-09T08:18:17;102249.84;;;21.52;100.00
6028;BME280;3042;43.194;27.646;2023-05-09T08:20:45;102216.47;;;21.51;100.00
6028;BME280;3042;43.194;27.646;2023-05-09T08:23:13;102262.56;;;21.02;100.00
6028;BME280;3042;43.194;27.646;2023-05-09T08:25:40;102223.13;;;21.73;100.00
6028;BME280;3042;43.194;27.646;2023-05-09T08:28:07;102233.13;;;21.89;100.00
6028;BME280;3042;43.194;27.646;2023-05-09T08:30:34;102245.66;;;21.62;100.00
6028;BME280;3042;43.194;27.646;2023-05-09T08:33:01;102249.41;;;21.37;100.00
6028;BME280;3042;43.194;27.646;2023-05-09T08:35:29;102230.41;;;21.85;100.00
6028;BME280;3042;43.194;27.646;2023-05-09T08:37:57;102247.13;;;21.88;100.00
6028;BME280;3042;43.194;27.646;2023-05-09T08:40:25;102247.63;;;21.72;100.00
6028;BME280;3042;43.194;27.646;2023-05-09T08:42:52;102225.88;;;22.20;100.00
6028;BME280;3042;43.194;27.646;2023-05-09T08:45:27;102258.75;;;21.59;100.00
6028;BME280;3042;43.194;27.646;2023-05-09T08:47:56;102208.16;;;20.98;100.00
6028;BME280;3042;43.194;27.646;2023-05-09T08:50:23;102233.34;;;21.24;100.00
6028;BME280;3042;43.194;27.646;2023-05-09T08:52:51;102256.38;;;21.35;100.00
6028;BME280;3042;43.194;27.646;2023-05-09T08:55:21;102264.84;;;21.21;100.00
6028;BME280;3042;43.194;27.646;2023-05-09T08:57:48;102239.38;;;21.55;100.00
6028;BME280;3042;43.194;27.646;2023-05-09T09:00:16;102235.97;;;21.59;100.00
6028;BME280;3042;43.194;27.646;2023-05-09T09:02:45;102234.16;;;21.58;100.00
6028;BME280;3042;43.194;27.646;2023-05-09T09:05:12;102167.28;;;21.11;100.00
6028;BME280;3042;43.194;27.646;2023-05-09T09:07:40;102244.41;;;21.46;100.00
6028;BME280;3042;43.194;27.646;2023-05-09T09:10:09;102238.69;;;21.27;100.00
6028;BME280;3042;43.194;27.646;2023-05-09T09:12:38;102236.28;;;21.02;100.00
6028;BME280;3042;43.194;27.646;2023-05-09T09:15:10;102222.91;;;20.59;100.00
6028;BME280;3042;43.194;27.646;2023-05-09T09:17:41;102261.28;;;20.86;100.00
6028;BME280;3042;43.194;27.646;2023-05-09T09:20:11;102237.03;;;20.63;100.00
6028;BME280;3042;43.194;27.646;2023-05-09T09:22:41;102263.38;;;20.66;100.00
6028;BME280;3042;43.194;27.646;2023-05-09T09:25:10;102216.16;;;20.68;100.00
6028;BME280;3042;43.194;27.646;2023-05-09T09:27:38;102236.91;;;21.26;100.00
6028;BME280;3042;43.194;27.646;2023-05-09T09:30:07;102245.03;;;21.01;100.00
6028;BME280;3042;43.194;27.646;2023-05-09T09:32:34;102231.94;;;20.69;100.00
6028;BME280;3042;43.194;27.646;2023-05-09T09:35:05;102238.06;;;20.70;100.00
6028;BME280;3042;43.194;27.646;2023-05-09T09:37:33;102235.28;;;21.32;100.00
6028;BME280;3042;43.194;27.646;2023-05-09T09:40:02;102220.38;;;20.96;100.00
6028;BME280;3042;43.194;27.646;2023-05-09T09:42:41;102221.81;;;21.54;100.00
6028;BME280;3042;43.194;27.646;2023-05-09T09:45:10;102231.47;;;21.55;100.00
6028;BME280;3042;43.194;27.646;2023-05-09T09:47:38;102240.69;;;21.38;100.00
6028;BME280;3042;43.194;27.646;2023-05-09T09:50:10;102225.91;;;21.81;100.00
6028;BME280;3042;43.194;27.646;2023-05-09T09:52:42;102131.81;;;21.69;100.00
6028;BME280;3042;43.194;27.646;2023-05-09T09:55:10;102104.66;;;21.71;100.00
6028;BME280;3042;43.194;27.646;2023-05-09T09:57:38;102199.16;;;22.44;100.00
6028;BME280;3042;43.194;27.646;2023-05-09T10:00:11;102078.91;;;21.99;100.00
6028;BME280;3042;43.194;27.646;2023-05-09T10:02:49;102191.41;;;22.09;100.00
6028;BME280;3042;43.194;27.646;2023-05-09T10:05:20;102152.84;;;22.11;100.00
6028;BME280;3042;43.194;27.646;2023-05-09T10:07:54;102192.47;;;22.62;100.00
6028;BME280;3042;43.194;27.646;2023-05-09T10:10:22;102149.72;;;22.31;100.00
6028;BME280;3042;43.194;27.646;2023-05-09T10:13:02;102163.28;;;23.03;100.00
6028;BME280;3042;43.194;27.646;2023-05-09T10:15:37;102186.22;;;23.07;100.00
6028;BME280;3042;43.194;27.646;2023-05-09T10:18:05;102216.84;;;22.51;100.00
6028;BME280;3042;43.194;27.646;2023-05-09T10:20:33;102098.53;;;21.73;100.00
6028;BME280;3042;43.194;27.646;2023-05-09T10:23:02;102186.94;;;22.49;100.00
6028;BME280;3042;43.194;27.646;2023-05-09T10:25:38;102232.25;;;22.30;100.00
6028;BME280;3042;43.194;27.646;2023-05-09T10:28:11;102221.25;;;22.51;100.00
6028;BME280;3042;43.194;27.646;2023-05-09T10:30:47;102225.63;;;22.50;100.00
6028;BME280;3042;43.194;27.646;2023-05-09T10:33:19;102255.13;;;21.91;100.00
6028;BME280;3042;43.194;27.646;2023-05-09T10:36:05;102251.53;;;21.52;100.00
6028;BME280;3042;43.194;27.646;2023-05-09T10:38:42;102256.91;;;21.56;100.00
6028;BME280;3042;43.194;27.646;2023-05-09T10:41:16;102238.97;;;20.70;100.00
6028;BME280;3042;43.194;27.646;2023-05-09T10:43:44;102282.06;;;20.47;100.00
6028;BME280;3042;43.194;27.646;2023-05-09T10:46:13;102279.13;;;20.06;100.00
6028;BME280;3042;43.194;27.646;2023-05-09T10:48:42;102219.06;;;19.59;100.00
6028;BME280;3042;43.194;27.646;2023-05-09T10:51:10;102276.03;;;19.90;100.00
6028;BME280;3042;43.194;27.646;2023-05-09T10:53:41;102156.47;;;19.41;100.00
6028;BME280;3042;43.194;27.646;2023-05-09T10:56:21;102284.56;;;19.83;100.00
6028;BME280;3042;43.194;27.646;2023-05-09T10:58:48;102285.59;;;19.88;100.00
6028;BME280;3042;43.194;27.646;2023-05-09T11:01:29;102273.50;;;19.93;100.00
6028;BME280;3042;43.194;27.646;2023-05-09T11:04:00;102284.59;;;19.57;100.00
6028;BME280;3042;43.194;27.646;2023-05-09T11:06:57;102269.06;;;19.92;100.00
6028;BME280;3042;43.194;27.646;2023-05-09T11:09:31;102281.81;;;19.80;100.00
6028;BME280;3042;43.194;27.646;2023-05-09T11:12:08;102286.31;;;19.57;100.00
6028;BME280;3042;43.194;27.646;2023-05-09T11:14:47;102299.09;;;19.21;100.00
6028;BME280;3042;43.194;27.646;2023-05-09T11:17:29;102296.16;;;19.37;100.00
6028;BME280;3042;43.194;27.646;2023-05-09T11:20:02;102258.16;;;19.24;100.00
6028;BME280;3042;43.194;27.646;2023-05-09T11:22:38;102201.69;;;19.34;100.00
6028;BME280;3042;43.194;27.646;2023-05-09T11:25:07;102273.22;;;19.84;100.00
6028;BME280;3042;43.194;27.646;2023-05-09T11:27:40;102292.34;;;19.54;100.00
6028;BME280;3042;43.194;27.646;2023-05-09T11:30:14;102293.19;;;19.53;100.00
6028;BME280;3042;43.194;27.646;2023-05-09T11:32:45;102274.31;;;19.91;100.00
6028;BME280;3042;43.194;27.646;2023-05-09T11:35:13;102260.94;;;19.56;100.00
6028;BME280;3042;43.194;27.646;2023-05-09T11:37:46;102274.91;;;19.82;100.00
6028;BME280;3042;43.194;27.646;2023-05-09T11:40:14;102151.19;;;19.12;100.00
6028;BME280;3042;43.194;27.646;2023-05-09T11:42:44;102290.81;;;19.34;100.00
6028;BME280;3042;43.194;27.646;2023-05-09T11:45:14;102279.22;;;19.27;100.00
6028;BME280;3042;43.194;27.646;2023-05-09T11:47:44;102269.91;;;19.64;100.00
6028;BME280;3042;43.194;27.646;2023-05-09T11:50:12;102170.78;;;18.47;100.00
6028;BME280;3042;43.194;27.646;2023-05-09T11:52:40;102282.00;;;19.32;100.00
6028;BME280;3042;43.194;27.646;2023-05-09T11:55:09;102245.19;;;18.77;100.00
6028;BME280;3042;43.194;27.646;2023-05-09T11:57:39;102285.28;;;19.25;100.00
6028;BME280;3042;43.194;27.646;2023-05-09T12:00:08;102269.16;;;19.67;100.00
6028;BME280;3042;43.194;27.646;2023-05-09T12:02:35;102261.88;;;19.85;100.00
6028;BME280;3042;43.194;27.646;2023-05-09T12:05:08;102260.53;;;19.98;100.00
6028;BME280;3042;43.194;27.646;2023-05-09T12:07:36;102258.03;;;20.02;100.00
6028;BME280;3042;43.194;27.646;2023-05-09T12:10:07;102242.88;;;20.54;100.00
6028;BME280;3042;43.194;27.646;2023-05-09T12:12:37;102129.22;;;19.65;100.00
6028;BME280;3042;43.194;27.646;2023-05-09T12:15:10;102250.47;;;20.43;100.00
6028;BME280;3042;43.194;27.646;2023-05-09T12:17:38;102244.53;;;20.51;100.00
6028;BME280;3042;43.194;27.646;2023-05-09T12:20:08;102051.66;;;19.14;100.00
6028;BME280;3042;43.194;27.646;2023-05-09T12:22:36;102177.09;;;20.18;100.00
6028;BME280;3042;43.194;27.646;2023-05-09T12:25:09;102236.66;;;20.51;100.00
6028;BME280;3042;43.194;27.646;2023-05-09T12:27:40;102002.69;;;19.11;100.00
6028;BME280;3042;43.194;27.646;2023-05-09T12:30:08;102245.59;;;20.26;100.00
6028;BME280;3042;43.194;27.646;2023-05-09T12:32:37;102271.03;;;19.71;100.00
6028;BME280;3042;43.194;27.646;2023-05-09T12:35:17;102254.47;;;20.00;100.00
6028;BME280;3042;43.194;27.646;2023-05-09T12:37:55;102261.44;;;19.71;100.00
6028;BME280;3042;43.194;27.646;2023-05-09T12:58:51;102254.47;;;20.00;100.00
6028;BME280;3042;43.194;27.646;2023-05-09T13:01:19;102093.72;;;19.47;100.00
6028;BME280;3042;43.194;27.646;2023-05-09T13:03:50;102217.19;;;20.12;100.00
6028;BME280;3042;43.194;27.646;2023-05-09T13:06:18;102240.00;;;20.45;100.00
6028;BME280;3042;43.194;27.646;2023-05-09T13:08:56;102245.47;;;20.53;100.00
6028;BME280;3042;43.194;27.646;2023-05-09T13:11:23;102121.19;;;19.30;100.00
6028;BME280;3042;43.194;27.646;2023-05-09T13:13:53;102137.91;;;19.64;100.00
6028;BME280;3042;43.194;27.646;2023-05-09T13:16:21;102241.22;;;20.26;100.00
6028;BME280;3042;43.194;27.646;2023-05-09T13:18:48;102250.88;;;20.27;100.00
6028;BME280;3042;43.194;27.646;2023-05-09T13:21:15;102200.03;;;19.65;100.00
6028;BME280;3042;43.194;27.646;2023-05-09T13:23:42;102254.19;;;19.91;100.00
6028;BME280;3042;43.194;27.646;2023-05-09T13:26:10;102253.13;;;19.85;100.00
6028;BME280;3042;43.194;27.646;2023-05-09T13:28:37;102274.19;;;19.60;100.00